地図

経路データ

SID SEASON NUMBER BASIN SUBBASIN NAME ISO_TIME NATURE LAT LON WMO_WIND WMO_PRES WMO_AGENCY TRACK_TYPE DIST2LAND LANDFALL IFLAG USA_AGENCY USA_ATCF_ID USA_LAT USA_LON USA_RECORD USA_STATUS USA_WIND USA_PRES USA_SSHS USA_R34_NE USA_R34_SE USA_R34_SW USA_R34_NW USA_R50_NE USA_R50_SE USA_R50_SW USA_R50_NW USA_R64_NE USA_R64_SE USA_R64_SW USA_R64_NW USA_POCI USA_ROCI USA_RMW USA_EYE TOKYO_LAT TOKYO_LON TOKYO_GRADE TOKYO_WIND TOKYO_PRES TOKYO_R50_DIR TOKYO_R50_LONG TOKYO_R50_SHORT TOKYO_R30_DIR TOKYO_R30_LONG TOKYO_R30_SHORT TOKYO_LAND CMA_LAT CMA_LON CMA_CAT CMA_WIND CMA_PRES HKO_LAT HKO_LON HKO_CAT HKO_WIND HKO_PRES NEWDELHI_LAT NEWDELHI_LON NEWDELHI_GRADE NEWDELHI_WIND NEWDELHI_PRES NEWDELHI_CI NEWDELHI_DP NEWDELHI_POCI REUNION_LAT REUNION_LON REUNION_TYPE REUNION_WIND REUNION_PRES REUNION_TNUM REUNION_CI REUNION_RMW REUNION_R34_NE REUNION_R34_SE REUNION_R34_SW REUNION_R34_NW REUNION_R50_NE REUNION_R50_SE REUNION_R50_SW REUNION_R50_NW REUNION_R64_NE REUNION_R64_SE REUNION_R64_SW REUNION_R64_NW BOM_LAT BOM_LON BOM_TYPE BOM_WIND BOM_PRES BOM_TNUM BOM_CI BOM_RMW BOM_R34_NE BOM_R34_SE BOM_R34_SW BOM_R34_NW BOM_R50_NE BOM_R50_SE BOM_R50_SW BOM_R50_NW BOM_R64_NE BOM_R64_SE BOM_R64_SW BOM_R64_NW BOM_ROCI BOM_POCI BOM_EYE BOM_POS_METHOD BOM_PRES_METHOD NADI_LAT NADI_LON NADI_CAT NADI_WIND NADI_PRES WELLINGTON_LAT WELLINGTON_LON WELLINGTON_WIND WELLINGTON_PRES DS824_LAT DS824_LON DS824_STAGE DS824_WIND DS824_PRES TD9636_LAT TD9636_LON TD9636_STAGE TD9636_WIND TD9636_PRES TD9635_LAT TD9635_LON TD9635_WIND TD9635_PRES TD9635_ROCI NEUMANN_LAT NEUMANN_LON NEUMANN_CLASS NEUMANN_WIND NEUMANN_PRES MLC_LAT MLC_LON MLC_CLASS MLC_WIND MLC_PRES USA_GUST BOM_GUST BOM_GUST_PER REUNION_GUST REUNION_GUST_PER USA_SEAHGT USA_SEARAD_NE USA_SEARAD_SE USA_SEARAD_SW USA_SEARAD_NW STORM_SPEED STORM_DIR
1989228N29127 1989 81 WP MM NOT_NAMED 1989-08-16 00:00:00 TS 28.8667 127.033 main 400 393 O_O_______O___ jtwc_wp WP191989 29.3000 126.300 20 -1 28.0000 128.500 1 23 1000 29.3000 126.300 1 20 6 321
1989228N29127 1989 81 WP MM NOT_NAMED 1989-08-16 03:00:00 TS 29.0854 126.831 main 401 395 P_P_______P___ WP191989 29.5575 126.222 20 -1 28.1053 128.088 1 23 1000 29.5933 126.184 1 21 6 319
1989228N29127 1989 81 WP MM NOT_NAMED 1989-08-16 06:00:00 TS 29.2831 126.615 main 405 405 O_O_______P___ jtwc_wp WP191989 29.8000 126.100 20 -1 28.2000 127.700 1 23 1000 29.8492 126.044 1 22 5 311
1989228N29127 1989 81 WP MM NOT_NAMED 1989-08-16 09:00:00 TS 29.4393 126.367 main 415 398 P_P_______P___ WP191989 30.0024 125.895 22 -1 28.2848 127.350 1 23 1000 30.0306 125.857 1 23 5 298
1989228N29127 1989 81 WP MM NOT_NAMED 1989-08-16 12:00:00 TS 29.5333 126.067 main 398 360 O_O_______O___ jtwc_wp WP191989 30.1000 125.600 25 -1 28.4000 127.000 1 23 1000 30.1000 125.600 1 25 6 282
1989228N29127 1989 81 WP MM NOT_NAMED 1989-08-16 15:00:00 TS 29.5640 125.702 main 360 321 P_P_______P___ WP191989 30.0677 125.207 25 -1 28.5921 126.637 1 26 1000 30.0320 125.262 1 25 7 269
1989228N29127 1989 81 WP MM NOT_NAMED 1989-08-16 18:00:00 TS 29.5170 125.294 main 321 281 O_O_______P___ jtwc_wp WP191989 29.9000 124.800 25 -1 28.8000 126.200 1 29 1000 29.8511 124.883 1 25 7 258
1989228N29127 1989 81 WP MM NOT_NAMED 1989-08-16 21:00:00 TS 29.4116 124.863 main 281 242 P_P_______P___ WP191989 29.6299 124.470 25 -1 29.0104 125.608 1 33 999 29.5945 124.512 1 25 8 251
1989228N29127 1989 81 WP MM NOT_NAMED 1989-08-17 00:00:00 TS 29.2692 124.446 main 232 213 O_OO______O___ jtwc_wp WP191989 29.3000 124.200 25 -1 29.1000 125.000 2 38 998 29.7000 124.200 TD 25 998 29.3000 124.200 1 25 7 237
1989228N29127 1989 81 WP MM NOT_NAMED 1989-08-17 03:00:00 TS 29.0191 124.159 main 214 199 P_PP______P___ WP191989 29.0000 123.963 25 -1 28.9598 124.504 2 38 996 29.1900 124.160 TD 27 996 29.0119 124.011 1 25 7 217
1989228N29127 1989 81 WP MM NOT_NAMED 1989-08-17 06:00:00 TS 28.6998 123.962 main 202 192 O_OO______P___ jtwc_wp WP191989 28.7000 123.800 25 -1 28.7000 124.100 2 38 995 28.7000 124.100 TD 30 995 28.6994 123.883 1 25 7 205
1989228N29127 1989 81 WP MM NOT_NAMED 1989-08-17 09:00:00 TS 28.3730 123.820 main 196 196 P_PP______P___ WP191989 28.3924 123.735 25 -1 28.4574 123.748 2 38 995 28.2550 124.007 TD 30 995 28.3871 123.789 1 25 7 200
1989228N29127 1989 81 WP MM NOT_NAMED 1989-08-17 12:00:00 TS 28.0750 123.700 main 206 198 O_OO______O___ jtwc_wp WP191989 28.1000 123.700 25 -1 28.2000 123.500 2 38 995 27.9000 123.900 TD 30 995 28.1000 123.700 1 25 6 200
1989228N29127 1989 81 WP MM NOT_NAMED 1989-08-17 15:00:00 TS 27.8188 123.590 main 203 198 P_PP______P___ WP191989 27.8275 123.615 25 -1 27.9499 123.363 2 38 995 27.6550 123.800 TD 30 995 27.8427 123.583 1 26 5 202
1989228N29127 1989 81 WP MM NOT_NAMED 1989-08-17 18:00:00 TS 27.6043 123.491 main 202 197 O_OO______P___ jtwc_wp WP191989 27.6000 123.500 25 -1 27.7000 123.300 2 38 995 27.5000 123.700 TD 30 995 27.6174 123.465 1 27 4 204
1989228N29127 1989 81 WP MM NOT_NAMED 1989-08-17 21:00:00 TS 27.4108 123.385 main 203 194 P_PP______P___ WP191989 27.4200 123.365 27 -1 27.4125 123.235 2 38 995 27.3775 123.600 TD 30 995 27.4333 123.339 1 28 4 210
1989228N29127 1989 81 WP MM NOT_NAMED 1989-08-18 00:00:00 TS 27.2750 123.275 main 200 192 O_OO______O___ jtwc_wp WP191989 27.3000 123.200 30 -1 27.2000 123.200 2 38 995 27.3000 123.500 TD 30 995 27.3000 123.200 1 30 3 225
1989228N29127 1989 81 WP MM NOT_NAMED 1989-08-18 03:00:00 TS 27.2191 123.166 main 199 184 P_PP______P___ WP191989 27.2275 123.000 30 -1 27.1775 123.208 2 38 995 27.2424 123.415 TD 30 995 27.2288 123.040 1 30 2 250
1989228N29127 1989 81 WP MM NOT_NAMED 1989-08-18 06:00:00 TS 27.2013 123.041 main 184 177 O_OO______P___ jtwc_wp WP191989 27.2000 122.800 30 -1 27.2000 123.200 2 38 995 27.2000 123.300 TD 30 995 27.2050 122.865 1 30 2 257
1989228N29127 1989 81 WP MM NOT_NAMED 1989-08-18 09:00:00 TS 27.1615 122.896 main 177 172 P_PP______P___ WP191989 27.2000 122.643 30 -1 27.1000 123.130 2 33 997 27.1424 123.130 TD 30 995 27.2038 122.683 1 30 3 255
1989228N29127 1989 81 WP MM NOT_NAMED 1989-08-18 12:00:00 TS 27.1250 122.725 main 172 166 O_OO______O___ jtwc_wp WP191989 27.2000 122.500 30 -1 27.0000 123.000 1 29 1000 27.1000 122.900 TD 30 995 27.2000 122.500 1 30 3 259
1989228N29127 1989 81 WP MM NOT_NAMED 1989-08-18 15:00:00 TS 27.0979 122.539 main 160 148 P_PP______P___ WP191989 27.1575 122.357 30 -1 26.9699 122.830 1 29 1000 27.1075 122.615 TD 30 995 27.1568 122.354 1 30 4 262
1989228N29127 1989 81 WP MM NOT_NAMED 1989-08-18 18:00:00 TS 27.0767 122.326 main 148 136 O_OO______P___ jtwc_wp WP191989 27.1000 122.200 30 -1 27.0000 122.600 1 29 1000 27.1000 122.300 TD 30 995 27.1069 122.203 1 30 4 264
1989228N29127 1989 81 WP MM NOT_NAMED 1989-08-18 21:00:00 TS 27.0546 122.096 main 136 122 P_PP______P___ WP191989 27.0499 122.030 30 -1 27.1073 122.338 1 29 1000 27.0075 121.992 TD 32 994 27.0536 122.025 1 30 4 263
1989228N29127 1989 81 WP MM NOT_NAMED 1989-08-19 00:00:00 TS 27.0250 121.825 main 122 96 O_OO______O___ jtwc_wp WP191989 27.0000 121.800 30 -1 27.2000 122.000 1 29 1000 26.9000 121.700 TS 35 993 27.0000 121.800 1 30 5 262
1989228N29127 1989 81 WP MM NOT_NAMED 1989-08-19 03:00:00 TS 26.9826 121.490 main 96 76 P_PP______P___ WP191989 26.9501 121.473 30 -1 27.1878 121.535 1 33 999 26.8424 121.443 TS 35 993 26.9501 121.509 1 28 6 261
1989228N29127 1989 81 WP MM NOT_NAMED 1989-08-19 06:00:00 TS 26.9250 121.142 main 68 51 O_OO______P___ jtwc_wp WP191989 26.9000 121.100 30 -1 27.1000 121.100 2 38 998 26.8000 121.200 TS 35 993 26.9001 121.168 1 27 6 257
1989228N29127 1989 81 WP MM NOT_NAMED 1989-08-19 09:00:00 TS 26.8480 120.837 main 51 37 P_PP______P___ WP191989 26.8499 120.758 27 -1 26.9423 120.847 2 43 996 26.7500 120.950 TS 37 991 26.8500 120.793 1 26 5 254
1989228N29127 1989 81 WP MM NOT_NAMED 1989-08-19 12:00:00 TS 26.7769 120.562 main 37 19 O_OO______O___ jtwc_wp WP191989 26.8000 120.400 25 -1 26.8000 120.700 3 48 995 26.7000 120.700 TS 40 990 26.8000 120.400 1 25 5 257
1989228N29127 1989 81 WP MM NOT_NAMED 1989-08-19 15:00:00 TS 26.7411 120.335 main 19 9 P_PP______P___ WP191989 26.7503 120.010 25 -1 26.7774 120.608 3 38 997 26.6501 120.450 TS 35 992 26.7502 120.001 1 25 3 264
1989228N29127 1989 81 WP MM NOT_NAMED 1989-08-19 18:00:00 TS 26.7429 120.200 main 9 9 O_OO______O___ jtwc_wp WP191989 26.7000 119.600 25 -1 26.8000 120.500 1 29 1000 26.6000 120.200 TD 30 995 26.7000 119.600 1 25 1 318
1989228N29127 1989 81 WP MM NOT_NAMED 1989-08-19 21:00:00 TS 26.8000 120.273 main 14 0 __P___________ WP191989 -1 26.8000 120.273 1 24 1002 TD 1 2 288
1989228N29127 1989 81 WP MM NOT_NAMED 1989-08-20 00:00:00 TS 26.8000 120.000 main 0 0 __O___________ -1 26.8000 120.000 0 19 1004 5 270
1989228N29127 1989 81 WP MM NOT_NAMED 1989-08-20 03:00:00 TS 26.8000 119.743 main 0 0 __P___________ -1 26.8000 119.743 0 19 1004 4 270
1989228N29127 1989 81 WP MM NOT_NAMED 1989-08-20 06:00:00 TS 26.8000 119.500 main 0 __O___________ -1 26.8000 119.500 0 19 1004 4 270

デジタル台風データ・検索

IBTrACS Databaseについて

本データベースは、米国NOAAが公開する1842年以降の世界の熱帯低気圧のベストトラックデータアーカイブInternational Best Track Archive for Climate Stewardship (IBTrACS)を、ウェブで閲覧しやすい形式に変換したものです。

最終更新日:2021-12-03